createdAt,value
2019-06-07T00:01:23.809Z,48.66
2019-06-07T00:03:40.589Z,48.64
2019-06-07T00:05:57.366Z,48.64
2019-06-07T00:08:24.128Z,48.40
2019-06-07T00:10:36.584Z,48.89
2019-06-07T00:12:51.332Z,49.00
2019-06-07T00:15:11.605Z,49.02
2019-06-07T00:17:26.589Z,48.92
2019-06-07T00:19:43.413Z,48.71
2019-06-07T00:22:17.651Z,48.78
2019-06-07T00:24:21.550Z,48.63
2019-06-07T00:26:57.096Z,48.56
2019-06-07T00:28:56.359Z,48.30
2019-06-07T00:31:16.942Z,48.11
2019-06-07T00:33:32.861Z,48.35
2019-06-07T00:35:49.842Z,48.46
2019-06-07T00:38:06.893Z,48.40
2019-06-07T00:40:31.472Z,48.26
2019-06-07T00:42:42.547Z,48.17
2019-06-07T00:45:00.544Z,48.20
2019-06-07T00:47:22.738Z,47.79
2019-06-07T00:49:41.452Z,48.03
2019-06-07T00:51:55.150Z,48.36
2019-06-07T00:54:14.967Z,48.12
2019-06-07T00:56:30.996Z,47.93
2019-06-07T00:59:09.738Z,48.44
2019-06-07T01:01:07.822Z,49.02
2019-06-07T01:03:25.984Z,49.06
2019-06-07T01:05:43.425Z,48.60
2019-06-07T01:08:00.325Z,48.27
2019-06-07T01:10:46.476Z,48.39
2019-06-07T01:12:36.529Z,48.26
2019-06-07T01:14:53.417Z,48.28
2019-06-07T01:17:40.070Z,48.47
2019-06-07T01:19:44.549Z,49.05
2019-06-07T01:22:01.465Z,49.15
2019-06-07T01:24:20.046Z,48.72
2019-06-07T01:26:37.137Z,48.34
2019-06-07T01:28:54.375Z,48.36
2019-06-07T01:31:11.340Z,47.97
2019-06-07T01:33:49.500Z,47.91
2019-06-07T01:35:46.929Z,47.94
2019-06-07T01:38:05.235Z,48.64
2019-06-07T01:40:27.739Z,48.77
2019-06-07T01:42:40.971Z,48.37
2019-06-07T01:44:58.366Z,48.25
2019-06-07T01:47:15.447Z,48.17
2019-06-07T01:49:32.347Z,48.31
2019-06-07T01:51:49.304Z,48.21
2019-06-07T01:54:49.667Z,48.74
2019-06-07T01:56:29.555Z,48.70
2019-06-07T01:58:45.400Z,48.30
2019-06-07T02:01:03.332Z,48.32
2019-06-07T02:03:22.336Z,48.34
2019-06-07T02:05:39.430Z,48.31
2019-06-07T02:07:57.260Z,48.66
2019-06-07T02:10:14.374Z,48.53
2019-06-07T02:12:40.353Z,48.78
2019-06-07T02:14:49.615Z,48.86
2019-06-07T02:17:06.285Z,48.50
2019-06-07T02:19:24.272Z,48.50
2019-06-07T02:21:41.518Z,48.61
2019-06-07T02:23:58.639Z,48.57
2019-06-07T02:26:15.299Z,48.57
2019-06-07T02:28:44.604Z,48.62
2019-06-07T02:30:59.904Z,48.33
2019-06-07T02:33:09.332Z,48.64
2019-06-07T02:35:34.862Z,48.57
2019-06-07T02:37:44.626Z,48.79
2019-06-07T02:40:01.588Z,48.39
2019-06-07T02:42:18.389Z,49.10
2019-06-07T02:44:38.987Z,48.64
2019-06-07T02:46:53.824Z,48.40
2019-06-07T02:52:36.743Z,48.53
2019-06-07T02:54:50.679Z,48.52
2019-06-07T02:57:07.386Z,49.09
2019-06-07T02:59:46.941Z,48.74
2019-06-07T03:01:43.223Z,48.81
2019-06-07T03:04:00.282Z,48.95
2019-06-07T03:06:17.337Z,48.75
2019-06-07T03:08:36.625Z,48.79
2019-06-07T03:10:53.090Z,48.79
2019-06-07T03:13:10.438Z,48.92
2019-06-07T03:15:35.513Z,48.41
2019-06-07T03:18:04.038Z,48.40
2019-06-07T03:20:21.325Z,48.50
2019-06-07T03:22:41.394Z,48.65
2019-06-07T03:24:57.846Z,48.59
2019-06-07T03:27:36.255Z,48.40
2019-06-07T03:29:36.051Z,48.25
2019-06-07T03:31:52.317Z,48.52
2019-06-07T03:34:11.425Z,48.86
2019-06-07T03:36:29.636Z,48.60
2019-06-07T03:38:47.005Z,48.93
2019-06-07T03:41:03.784Z,48.93
2019-06-07T03:43:20.437Z,48.38
2019-06-07T03:45:41.263Z,48.49
2019-06-07T03:47:56.016Z,48.62
2019-06-07T03:50:12.805Z,48.09
2019-06-07T03:52:30.191Z,48.59
2019-06-07T03:54:48.409Z,48.59
2019-06-07T03:57:05.474Z,47.79
2019-06-07T03:59:22.471Z,48.05
2019-06-07T04:01:41.176Z,48.13
2019-06-07T04:03:57.997Z,47.94
2019-06-07T04:06:14.845Z,47.72
2019-06-07T04:08:36.437Z,47.26
2019-06-07T04:10:59.581Z,47.99
2019-06-07T04:13:10.507Z,47.45
2019-06-07T04:15:28.096Z,47.54
2019-06-07T04:18:01.017Z,47.86
2019-06-07T04:20:03.672Z,47.36
2019-06-07T04:22:20.399Z,47.60
2019-06-07T04:24:41.006Z,47.60
2019-06-07T04:26:55.957Z,47.92
2019-06-07T04:31:32.651Z,47.17
2019-06-07T04:33:50.527Z,47.17
2019-06-07T04:36:07.505Z,47.40
2019-06-07T04:38:24.480Z,46.40
2019-06-07T04:40:42.915Z,46.79
2019-06-07T04:43:00.284Z,46.27
2019-06-07T04:45:33.931Z,46.30
2019-06-07T04:47:37.221Z,47.13
2019-06-07T04:49:53.916Z,47.13
2019-06-07T04:52:10.611Z,46.62
2019-06-07T04:54:27.596Z,47.18
2019-06-07T05:00:34.188Z,47.35
2019-06-07T05:02:15.177Z,47.62
2019-06-07T05:04:33.186Z,47.26
2019-06-07T05:06:50.985Z,47.80
2019-06-07T05:09:07.762Z,47.06
2019-06-07T05:11:24.578Z,47.35
2019-06-07T05:13:43.997Z,47.35
2019-06-07T05:16:00.336Z,47.49
2019-06-07T05:18:17.546Z,45.73
2019-06-07T05:20:36.109Z,48.94
2019-06-07T05:22:53.102Z,46.86
2019-06-07T05:25:10.273Z,47.64
2019-06-07T05:27:27.247Z,46.13
2019-06-07T05:30:06.444Z,46.39
2019-06-07T05:32:03.838Z,47.00
2019-06-07T05:34:20.440Z,47.58
2019-06-07T05:36:39.918Z,47.58
2019-06-07T05:38:56.491Z,45.03
2019-06-07T05:41:15.287Z,47.26
2019-06-07T05:43:35.008Z,49.04
2019-06-07T05:45:51.641Z,45.46
2019-06-07T05:48:08.524Z,49.70
2019-06-07T05:50:38.946Z,47.95
2019-06-07T05:54:30.537Z,46.99
2019-06-07T05:56:47.332Z,46.33
2019-06-07T05:59:04.487Z,47.63
2019-06-07T06:03:43.102Z,50.79
2019-06-07T06:05:59.834Z,48.21
2019-06-07T06:08:17.062Z,45.67
2019-06-07T06:10:34.273Z,49.74
2019-06-07T06:12:52.303Z,49.57
2019-06-07T06:15:09.896Z,46.27
2019-06-07T06:17:27.283Z,45.26
2019-06-07T06:19:47.526Z,44.66
2019-06-07T06:22:03.549Z,44.74
2019-06-07T06:24:20.837Z,43.47
2019-06-07T06:26:46.248Z,40.85
2019-06-07T06:28:57.524Z,40.99
2019-06-07T06:31:14.630Z,41.68
2019-06-07T06:33:34.789Z,43.21
2019-06-07T06:35:51.159Z,40.94
2019-06-07T06:38:08.253Z,40.99
2019-06-07T06:40:26.352Z,42.27
2019-06-07T06:42:48.342Z,43.96
2019-06-07T06:45:05.411Z,41.84
2019-06-07T06:47:22.565Z,42.35
2019-06-07T06:49:40.403Z,43.01
2019-06-07T06:51:58.574Z,45.67
2019-06-07T06:54:15.458Z,42.37
2019-06-07T06:56:32.549Z,47.46
2019-06-07T06:59:32.693Z,48.75
2019-06-07T07:01:08.630Z,50.93
2019-06-07T07:05:48.665Z,44.15
2019-06-07T07:08:03.374Z,48.34
2019-06-07T07:10:30.881Z,46.78
2019-06-07T07:12:51.234Z,46.78
2019-06-07T07:15:07.518Z,46.86
2019-06-07T07:17:46.702Z,49.61
2019-06-07T07:19:46.591Z,47.39
2019-06-07T07:22:01.502Z,46.49
2019-06-07T07:24:22.086Z,47.53
2019-06-07T07:26:37.489Z,48.52
2019-06-07T07:28:57.299Z,48.88
2019-06-07T07:31:13.462Z,48.62
2019-06-07T07:34:20.951Z,44.74
2019-06-07T07:36:11.056Z,48.55
2019-06-07T07:38:08.782Z,48.28
2019-06-07T07:42:45.210Z,49.93
2019-06-07T07:45:02.866Z,47.43
2019-06-07T07:47:20.325Z,45.30
2019-06-07T07:49:37.250Z,47.55
2019-06-07T07:51:57.127Z,47.97
2019-06-07T07:54:12.939Z,47.12
2019-06-07T07:56:30.313Z,45.50
2019-06-07T07:58:51.181Z,44.43
2019-06-07T08:01:11.019Z,45.51
2019-06-07T08:03:27.242Z,47.43
2019-06-07T08:05:45.594Z,44.43
2019-06-07T08:08:05.218Z,45.00
2019-06-07T08:10:21.504Z,44.52
2019-06-07T08:13:00.516Z,44.52
2019-06-07T08:15:02.350Z,43.83
2019-06-07T08:17:15.658Z,41.09
2019-06-07T08:19:32.522Z,44.46
2019-06-07T08:21:50.611Z,43.80
2019-06-07T08:24:07.493Z,45.34
2019-06-07T08:26:24.496Z,44.65
2019-06-07T08:28:41.316Z,43.97
2019-06-07T08:31:06.473Z,45.59
2019-06-07T08:33:25.971Z,42.69
2019-06-07T08:38:25.229Z,42.56
2019-06-07T08:40:12.807Z,42.42
2019-06-07T08:42:37.051Z,43.28
2019-06-07T08:44:49.205Z,45.42
2019-06-07T08:47:19.767Z,43.43
2019-06-07T08:49:25.326Z,44.84
2019-06-07T08:51:42.253Z,44.84
2019-06-07T08:54:18.695Z,42.58
2019-06-07T08:56:18.701Z,40.40
2019-06-07T08:58:35.995Z,43.19
2019-06-07T09:00:53.559Z,40.06
2019-06-07T09:03:11.282Z,44.58
2019-06-07T09:05:28.565Z,38.97
2019-06-07T09:07:45.590Z,37.34
2019-06-07T09:10:09.590Z,37.34
2019-06-07T09:12:21.012Z,40.17
2019-06-07T09:14:59.057Z,39.16
2019-06-07T09:17:01.309Z,39.66
2019-06-07T09:19:15.250Z,39.66
2019-06-07T09:21:32.300Z,40.09
2019-06-07T09:23:50.502Z,38.87
2019-06-07T09:26:16.587Z,41.36
2019-06-07T09:28:27.640Z,40.88
2019-06-07T09:30:45.399Z,38.31
2019-06-07T09:33:09.073Z,39.96
2019-06-07T09:35:26.242Z,39.79
2019-06-07T09:40:17.427Z,40.02
2019-06-07T09:42:20.462Z,41.18
2019-06-07T09:44:37.491Z,41.18
2019-06-07T09:47:14.171Z,39.91
2019-06-07T09:49:28.259Z,38.31
2019-06-07T09:51:32.474Z,33.72
2019-06-07T09:53:49.663Z,33.72
2019-06-07T09:56:08.777Z,37.52
2019-06-07T09:58:50.925Z,34.95
2019-06-07T10:00:43.440Z,37.26
2019-06-07T10:03:13.834Z,36.87
2019-06-07T10:05:19.258Z,33.57
2019-06-07T10:07:36.113Z,33.43
2019-06-07T10:12:11.533Z,35.81
2019-06-07T10:14:28.435Z,37.54
2019-06-07T10:16:47.027Z,36.61
2019-06-07T10:19:05.642Z,36.08
2019-06-07T10:21:22.392Z,32.04
2019-06-07T10:23:39.258Z,32.04
2019-06-07T10:25:59.375Z,32.11
2019-06-07T10:28:16.407Z,33.40
2019-06-07T10:30:33.329Z,32.59
2019-06-07T10:32:52.200Z,32.59
2019-06-07T10:35:10.166Z,32.65
2019-06-07T10:37:27.451Z,27.59
2019-06-07T10:39:48.548Z,29.48
2019-06-07T10:42:04.613Z,30.96
2019-06-07T10:44:22.231Z,28.06
2019-06-07T10:46:38.996Z,27.56
2019-06-07T10:48:55.648Z,32.68
2019-06-07T10:51:14.741Z,31.02
2019-06-07T10:53:31.227Z,29.72
2019-06-07T10:55:48.243Z,30.76
2019-06-07T10:58:06.889Z,30.24
2019-06-07T11:00:24.298Z,32.09
2019-06-07T11:02:41.454Z,33.52
2019-06-07T11:04:58.445Z,35.36
2019-06-07T11:07:15.379Z,33.00
2019-06-07T11:09:33.978Z,31.60
2019-06-07T11:11:50.528Z,32.88
2019-06-07T11:14:08.592Z,28.16
2019-06-07T11:16:25.439Z,28.59
2019-06-07T11:18:42.306Z,28.59
2019-06-07T11:21:03.321Z,36.02
2019-06-07T11:23:18.586Z,33.79
2019-06-07T11:25:35.676Z,36.63
2019-06-07T11:27:52.547Z,36.48
2019-06-07T11:30:10.570Z,35.58
2019-06-07T11:32:28.637Z,33.53
2019-06-07T11:34:45.670Z,35.98
2019-06-07T11:37:03.057Z,33.98
2019-06-07T11:39:20.065Z,36.08
2019-06-07T11:41:37.240Z,33.03
2019-06-07T11:43:54.364Z,29.83
2019-06-07T11:46:11.602Z,32.91
2019-06-07T11:48:28.476Z,31.16
2019-06-07T11:50:45.529Z,31.16
2019-06-07T11:53:02.481Z,30.50
2019-06-07T11:55:19.454Z,29.33
2019-06-07T11:57:36.447Z,29.39
2019-06-07T11:59:53.352Z,30.41
2019-06-07T12:02:11.430Z,34.17
2019-06-07T12:04:34.372Z,31.90
2019-06-07T12:06:46.952Z,29.31
2019-06-07T12:09:04.589Z,34.29
2019-06-07T12:11:21.828Z,32.32
2019-06-07T12:13:38.467Z,28.78
2019-06-07T12:15:55.432Z,27.70
2019-06-07T12:18:13.112Z,28.87
2019-06-07T12:20:30.243Z,29.00
2019-06-07T12:22:47.412Z,32.41
2019-06-07T12:25:05.916Z,32.84
2019-06-07T12:27:23.213Z,35.38
2019-06-07T12:29:40.527Z,33.18
2019-06-07T12:31:57.674Z,31.66
2019-06-07T12:34:15.686Z,31.81
2019-06-07T12:36:33.306Z,32.18
2019-06-07T12:38:50.299Z,28.95
2019-06-07T12:41:07.435Z,32.23
2019-06-07T12:43:24.306Z,31.31
2019-06-07T12:45:45.291Z,30.79
2019-06-07T12:48:00.144Z,32.02
2019-06-07T12:50:18.163Z,29.93
2019-06-07T12:52:38.414Z,32.01
2019-06-07T12:54:55.457Z,32.50
2019-06-07T12:57:13.710Z,28.18
2019-06-07T12:59:30.942Z,30.81
2019-06-07T13:01:47.644Z,32.60
2019-06-07T13:04:04.925Z,32.38
2019-06-07T13:06:23.762Z,30.91
2019-06-07T13:08:43.458Z,31.30
2019-06-07T13:11:14.086Z,31.29
2019-06-07T13:13:20.954Z,29.90
2019-06-07T13:15:37.474Z,32.01
2019-06-07T13:17:54.300Z,32.52
2019-06-07T13:20:11.379Z,31.88
2019-06-07T13:22:28.577Z,29.98
2019-06-07T13:24:45.622Z,31.98
2019-06-07T13:27:03.433Z,32.24
2019-06-07T13:29:21.006Z,32.15
2019-06-07T13:31:38.067Z,33.13
2019-06-07T13:33:54.608Z,32.85
2019-06-07T13:36:11.537Z,31.50
2019-06-07T13:38:29.525Z,30.47
2019-06-07T13:40:46.360Z,31.66
2019-06-07T13:43:04.578Z,31.14
2019-06-07T13:45:22.337Z,33.03
2019-06-07T13:47:39.310Z,33.46
2019-06-07T13:49:56.406Z,33.73
2019-06-07T13:52:13.577Z,30.84
2019-06-07T13:54:30.641Z,28.26
2019-06-07T13:57:01.519Z,28.41
2019-06-07T13:59:05.861Z,28.10
2019-06-07T14:01:22.629Z,33.09
2019-06-07T14:03:39.447Z,29.49
2019-06-07T14:05:56.490Z,30.79
2019-06-07T14:08:14.517Z,29.31
2019-06-07T14:10:33.235Z,28.53
2019-06-07T14:12:50.503Z,29.17
2019-06-07T14:15:08.073Z,32.59
2019-06-07T14:17:25.285Z,33.23
2019-06-07T14:19:42.418Z,29.37
2019-06-07T14:22:00.439Z,30.62
2019-06-07T14:24:20.783Z,33.08
2019-06-07T14:26:38.505Z,33.08
2019-06-07T14:28:55.470Z,28.27
2019-06-07T14:31:12.485Z,32.09
2019-06-07T14:33:33.693Z,31.05
2019-06-07T14:35:50.687Z,30.64
2019-06-07T14:38:07.502Z,29.52
2019-06-07T14:40:25.689Z,27.79
2019-06-07T14:42:42.473Z,27.17
2019-06-07T14:44:59.368Z,27.17
2019-06-07T14:47:16.371Z,28.72
2019-06-07T14:49:34.756Z,26.71
2019-06-07T14:51:51.922Z,25.03
2019-06-07T14:54:09.097Z,26.46
2019-06-07T14:56:27.028Z,28.70
2019-06-07T14:58:44.256Z,26.90
2019-06-07T15:01:01.370Z,28.05
2019-06-07T15:03:18.657Z,26.37
2019-06-07T15:05:37.280Z,25.88
2019-06-07T15:07:54.355Z,25.35
2019-06-07T15:10:13.220Z,28.43
2019-06-07T15:12:31.363Z,28.08
2019-06-07T15:14:48.465Z,25.84
2019-06-07T15:17:05.558Z,23.42
2019-06-07T15:19:24.186Z,26.43
2019-06-07T15:21:42.380Z,30.08
2019-06-07T15:23:59.283Z,27.85
2019-06-07T15:26:16.295Z,28.91
2019-06-07T15:28:34.169Z,28.87
2019-06-07T15:30:51.381Z,26.79
2019-06-07T15:33:08.411Z,28.85
2019-06-07T15:35:25.521Z,29.27
2019-06-07T15:37:42.497Z,27.04
2019-06-07T15:40:00.505Z,28.83
2019-06-07T15:42:17.326Z,26.45
2019-06-07T15:44:35.425Z,28.88
2019-06-07T15:46:52.352Z,29.52
2019-06-07T15:49:09.307Z,27.45
2019-06-07T15:51:27.249Z,27.83
2019-06-07T15:53:44.935Z,30.79
2019-06-07T15:56:02.358Z,29.12
2019-06-07T15:58:19.973Z,27.61
2019-06-07T16:00:37.462Z,29.26
2019-06-07T16:02:54.427Z,25.94
2019-06-07T16:05:11.360Z,28.68
2019-06-07T16:07:28.285Z,28.42
2019-06-07T16:09:45.228Z,27.71
2019-06-07T16:12:02.095Z,30.56
2019-06-07T16:14:19.100Z,31.33
2019-06-07T16:16:37.036Z,29.78
2019-06-07T16:18:54.331Z,29.46
2019-06-07T16:21:11.468Z,29.85
2019-06-07T16:23:28.476Z,29.13
2019-06-07T16:25:45.333Z,30.64
2019-06-07T16:28:02.362Z,28.91
2019-06-07T16:30:19.385Z,29.12
2019-06-07T16:32:37.441Z,27.36
2019-06-07T16:34:54.365Z,28.49
2019-06-07T16:37:11.442Z,28.44
2019-06-07T16:39:28.581Z,28.51
2019-06-07T16:41:48.843Z,28.00
2019-06-07T16:44:06.511Z,24.51
2019-06-07T16:46:24.109Z,26.87
2019-06-07T16:48:41.321Z,25.28
2019-06-07T16:50:58.407Z,27.18
2019-06-07T16:53:15.311Z,26.94
2019-06-07T16:55:32.395Z,25.79
2019-06-07T16:57:49.311Z,27.25
2019-06-07T17:00:07.366Z,30.00
2019-06-07T17:02:24.466Z,27.39
2019-06-07T17:04:41.635Z,30.80
2019-06-07T17:06:58.973Z,28.85
2019-06-07T17:09:17.000Z,28.73
2019-06-07T17:11:34.244Z,27.88
2019-06-07T17:13:52.617Z,27.17
2019-06-07T17:16:09.579Z,29.42
2019-06-07T17:18:26.530Z,28.23
2019-06-07T17:20:45.335Z,30.32
2019-06-07T17:23:02.544Z,29.15
2019-06-07T17:25:19.447Z,28.86
2019-06-07T17:27:36.353Z,27.69
2019-06-07T17:29:53.640Z,31.05
2019-06-07T17:32:10.483Z,30.01
2019-06-07T17:34:27.503Z,31.40
2019-06-07T17:36:46.346Z,28.17
2019-06-07T17:39:04.547Z,32.76
2019-06-07T17:41:23.475Z,30.90
2019-06-07T17:43:56.160Z,31.05
2019-06-07T17:46:06.539Z,32.00
2019-06-07T17:48:26.281Z,33.26
2019-06-07T17:50:43.762Z,33.02
2019-06-07T17:53:00.694Z,33.66
2019-06-07T17:55:18.952Z,30.92
2019-06-07T17:57:35.700Z,30.92
2019-06-07T17:59:52.758Z,33.34
2019-06-07T18:02:15.394Z,33.34
2019-06-07T18:04:29.752Z,32.58
2019-06-07T18:06:47.350Z,35.71
2019-06-07T18:09:06.454Z,35.71
2019-06-07T18:11:23.762Z,36.00
2019-06-07T18:13:41.028Z,36.86
2019-06-07T18:15:59.842Z,36.86
2019-06-07T18:18:17.102Z,37.53
2019-06-07T18:20:34.275Z,37.54
2019-06-07T18:22:51.505Z,37.86
2019-06-07T18:25:08.497Z,37.19
2019-06-07T18:27:28.066Z,36.58
2019-06-07T18:29:44.796Z,37.51
2019-06-07T18:32:07.269Z,36.20
2019-06-07T18:34:24.537Z,36.20
2019-06-07T18:36:41.534Z,36.77
2019-06-07T18:38:59.308Z,38.27
2019-06-07T18:41:17.276Z,35.00
2019-06-07T18:43:35.302Z,36.21
2019-06-07T18:45:57.569Z,34.91
2019-06-07T18:48:16.530Z,34.70
2019-06-07T18:50:33.489Z,34.23
2019-06-07T18:52:50.889Z,35.26
2019-06-07T18:55:07.941Z,34.81
2019-06-07T18:57:24.509Z,35.18
2019-06-07T18:59:41.479Z,35.16
2019-06-07T19:02:00.111Z,35.50
2019-06-07T19:04:17.479Z,35.44
2019-06-07T19:06:39.822Z,35.89
2019-06-07T19:08:59.848Z,35.99
2019-06-07T19:11:17.320Z,36.70
2019-06-07T19:13:35.060Z,36.36
2019-06-07T19:15:53.379Z,37.25
2019-06-07T19:18:13.936Z,36.53
2019-06-07T19:20:33.091Z,36.55
2019-06-07T19:33:48.373Z,38.30
2019-06-07T19:35:55.541Z,38.36
2019-06-07T19:38:13.001Z,38.66
2019-06-07T19:40:30.066Z,38.66
2019-06-07T19:42:47.312Z,37.99
2019-06-07T19:45:28.274Z,39.46
2019-06-07T19:47:23.263Z,38.86
2019-06-07T19:49:40.495Z,39.76
2019-06-07T19:51:59.094Z,39.02
2019-06-07T19:54:16.096Z,39.64
2019-06-07T19:56:35.050Z,39.33
2019-06-07T19:58:53.395Z,39.99
2019-06-07T20:01:10.288Z,39.49
2019-06-07T20:03:27.296Z,40.90
2019-06-07T20:05:45.256Z,40.33
2019-06-07T20:08:02.869Z,40.20
2019-06-07T20:10:23.274Z,41.47
2019-06-07T20:12:40.449Z,40.04
2019-06-07T20:15:18.777Z,39.29
2019-06-07T20:17:19.857Z,39.30
2019-06-07T20:19:37.573Z,40.33
2019-06-07T20:21:55.069Z,40.68
2019-06-07T20:24:26.423Z,39.97
2019-06-07T20:26:31.266Z,40.22
2019-06-07T20:28:49.325Z,40.67
2019-06-07T20:31:08.078Z,40.55
2019-06-07T20:33:25.525Z,40.15
2019-06-07T20:35:45.129Z,43.21
2019-06-07T20:38:03.998Z,44.94
2019-06-07T20:40:24.867Z,44.18
2019-06-07T20:42:41.469Z,43.17
2019-06-07T20:44:59.560Z,43.17
2019-06-07T20:47:16.594Z,40.82
2019-06-07T20:49:35.089Z,40.82
2019-06-07T20:51:52.589Z,40.73
2019-06-07T20:54:09.365Z,40.10
2019-06-07T20:56:26.653Z,39.87
2019-06-07T20:58:45.851Z,40.34
2019-06-07T21:01:09.026Z,38.53
2019-06-07T21:03:26.119Z,38.53
2019-06-07T21:05:44.311Z,37.75
2019-06-07T21:08:01.986Z,35.93
2019-06-07T21:10:19.311Z,36.73
2019-06-07T21:12:36.402Z,37.53
2019-06-07T21:14:56.599Z,37.61
2019-06-07T21:17:13.449Z,37.50
2019-06-07T21:19:30.470Z,39.01
2019-06-07T21:21:47.564Z,41.62
2019-06-07T21:24:04.767Z,39.19
2019-06-07T21:26:21.788Z,38.86
2019-06-07T21:28:39.868Z,39.04
2019-06-07T21:30:58.977Z,39.04
2019-06-07T21:33:16.538Z,39.61
2019-06-07T21:35:33.486Z,40.54
2019-06-07T21:37:50.320Z,39.77
2019-06-07T21:40:08.199Z,38.33
2019-06-07T21:42:25.574Z,41.79
2019-06-07T21:44:42.538Z,38.92
2019-06-07T21:46:59.810Z,39.01
2019-06-07T21:49:16.767Z,42.39
2019-06-07T21:51:34.282Z,38.94
2019-06-07T21:53:51.350Z,38.94
2019-06-07T21:56:09.023Z,37.30
2019-06-07T21:58:26.258Z,38.41
2019-06-07T22:01:21.633Z,38.52
2019-06-07T22:03:38.735Z,40.48
2019-06-07T22:05:55.411Z,40.99
2019-06-07T22:08:14.495Z,40.99
2019-06-07T22:10:31.503Z,39.23
2019-06-07T22:12:49.276Z,39.10
2019-06-07T22:15:24.588Z,39.76
2019-06-07T22:17:26.377Z,38.70
2019-06-07T22:19:45.617Z,39.52
2019-06-07T22:22:05.166Z,40.33
2019-06-07T22:24:21.966Z,38.60
2019-06-07T22:26:38.554Z,38.95
2019-06-07T22:28:56.253Z,39.15
2019-06-07T22:31:14.998Z,40.48
2019-06-07T22:33:32.515Z,38.23
2019-06-07T22:35:52.248Z,39.38
2019-06-07T22:38:10.282Z,38.30
2019-06-07T22:40:28.271Z,38.57
2019-06-07T22:42:45.312Z,38.04
2019-06-07T22:45:02.350Z,38.53
2019-06-07T22:47:20.263Z,39.26
2019-06-07T22:49:37.323Z,38.26
2019-06-07T22:52:07.936Z,38.70
2019-06-07T22:54:14.006Z,41.23
2019-06-07T22:56:43.547Z,40.27
2019-06-07T22:59:00.579Z,42.58
2019-06-07T23:01:17.591Z,40.69
2019-06-07T23:03:34.396Z,40.13
2019-06-07T23:05:51.308Z,40.41
2019-06-07T23:08:08.836Z,43.12
2019-06-07T23:10:25.748Z,43.70
2019-06-07T23:12:42.486Z,43.95
2019-06-07T23:15:01.852Z,43.95
2019-06-07T23:17:20.719Z,44.57
2019-06-07T23:19:37.614Z,43.93
2019-06-07T23:21:54.437Z,46.16
2019-06-07T23:24:11.876Z,45.47
2019-06-07T23:26:28.969Z,44.03
2019-06-07T23:28:45.546Z,44.19
2019-06-07T23:31:02.546Z,44.40
2019-06-07T23:33:19.249Z,44.78
2019-06-07T23:35:36.073Z,46.94
2019-06-07T23:37:53.251Z,43.72
2019-06-07T23:40:11.209Z,48.21
2019-06-07T23:42:28.266Z,47.99
2019-06-07T23:44:45.253Z,44.79
2019-06-07T23:47:11.405Z,45.50
2019-06-07T23:49:22.556Z,45.39
2019-06-07T23:51:39.430Z,46.13
2019-06-07T23:53:56.798Z,45.39
2019-06-07T23:56:13.782Z,46.78
2019-06-07T23:58:30.291Z,46.78
